createdAt,value
2022-11-16T00:04:13.570Z,81.60
2022-11-16T00:09:26.919Z,81.90
2022-11-16T00:14:28.626Z,82.15
2022-11-16T00:19:28.406Z,82.31
2022-11-16T00:24:27.389Z,82.20
2022-11-16T00:29:27.223Z,81.54
2022-11-16T00:34:26.101Z,81.43
2022-11-16T00:39:24.973Z,81.34
2022-11-16T00:44:23.672Z,80.88
2022-11-16T00:49:22.833Z,81.65
2022-11-16T00:54:22.297Z,81.29
2022-11-16T00:59:21.922Z,81.01
2022-11-16T01:04:20.781Z,81.07
2022-11-16T01:09:19.732Z,80.98
2022-11-16T01:14:19.759Z,80.76
2022-11-16T01:19:18.712Z,81.51
2022-11-16T01:24:17.530Z,81.98
2022-11-16T01:29:16.655Z,81.90
2022-11-16T01:34:22.916Z,81.36
2022-11-16T01:39:23.683Z,81.32
2022-11-16T01:44:33.197Z,81.38
2022-11-16T01:49:46.531Z,81.25
2022-11-16T01:54:49.881Z,81.38
2022-11-16T01:59:52.832Z,81.89
2022-11-16T02:04:55.697Z,81.34
2022-11-16T02:10:40.609Z,81.74
2022-11-16T02:15:45.147Z,82.46
2022-11-16T02:21:01.290Z,82.25
2022-11-16T02:26:18.857Z,81.64
2022-11-16T02:31:24.652Z,82.25
2022-11-16T02:36:25.639Z,81.78
2022-11-16T02:41:28.547Z,82.32
2022-11-16T02:46:35.837Z,82.60
2022-11-16T02:51:39.989Z,82.36
2022-11-16T02:57:03.081Z,82.09
2022-11-16T03:02:22.650Z,81.56
2022-11-16T03:07:27.382Z,81.42
2022-11-16T03:12:31.875Z,81.12
2022-11-16T03:17:39.385Z,80.85
2022-11-16T03:22:49.148Z,80.06
2022-11-16T03:28:21.852Z,79.53
2022-11-16T03:33:30.678Z,79.47
2022-11-16T03:38:31.670Z,78.76
2022-11-16T03:43:33.478Z,78.80
2022-11-16T03:48:39.270Z,78.63
2022-11-16T03:53:46.974Z,78.92
2022-11-16T03:58:46.253Z,78.56
2022-11-16T04:03:45.167Z,78.13
2022-11-16T04:09:03.136Z,78.49
2022-11-16T04:14:20.598Z,77.46
2022-11-16T04:19:38.120Z,77.53
2022-11-16T04:24:40.287Z,77.89
2022-11-16T04:29:40.106Z,77.45
2022-11-16T04:34:57.865Z,78.00
2022-11-16T04:39:57.488Z,77.50
2022-11-16T04:45:15.152Z,77.62
2022-11-16T04:50:20.996Z,77.17
2022-11-16T04:55:21.818Z,78.46
2022-11-16T05:00:23.217Z,77.83
2022-11-16T05:05:23.260Z,77.74
2022-11-16T05:10:23.467Z,76.45
2022-11-16T05:15:24.343Z,76.83
2022-11-16T05:20:41.754Z,77.02
2022-11-16T05:25:41.321Z,76.65
2022-11-16T05:30:45.871Z,76.40
2022-11-16T05:35:52.414Z,76.33
2022-11-16T05:40:53.234Z,75.64
2022-11-16T05:45:52.829Z,76.38
2022-11-16T05:50:58.436Z,75.71
2022-11-16T05:55:58.403Z,75.57
2022-11-16T06:00:58.333Z,75.76
2022-11-16T06:05:58.123Z,75.84
2022-11-16T06:11:04.107Z,75.47
2022-11-16T06:16:04.219Z,75.96
2022-11-16T06:21:05.498Z,74.77
2022-11-16T06:26:05.500Z,75.02
2022-11-16T06:31:04.693Z,76.72
2022-11-16T06:36:08.416Z,75.73
2022-11-16T06:41:08.551Z,76.27
2022-11-16T06:46:13.094Z,76.08
2022-11-16T06:51:12.420Z,75.96
2022-11-16T06:56:13.518Z,75.39
2022-11-16T07:01:18.185Z,75.23
2022-11-16T07:06:19.476Z,75.67
2022-11-16T07:11:20.241Z,75.18
2022-11-16T07:16:19.534Z,75.17
2022-11-16T07:21:25.556Z,75.61
2022-11-16T07:26:26.968Z,75.29
2022-11-16T07:31:31.114Z,74.82
2022-11-16T07:36:49.058Z,75.13
2022-11-16T07:41:53.092Z,75.46
2022-11-16T07:47:01.826Z,74.38
2022-11-16T07:52:03.657Z,74.26
2022-11-16T07:57:21.340Z,73.28
2022-11-16T08:02:20.835Z,73.60
2022-11-16T08:07:22.324Z,73.63
2022-11-16T08:12:25.618Z,73.38
2022-11-16T08:17:25.750Z,73.07
2022-11-16T08:22:25.531Z,74.84
2022-11-16T08:27:25.028Z,74.65
2022-11-16T08:32:29.848Z,74.08
2022-11-16T08:37:29.313Z,73.80
2022-11-16T08:42:29.300Z,87.91
2022-11-16T08:47:28.213Z,79.81
2022-11-16T08:52:30.290Z,74.27
2022-11-16T08:57:30.430Z,69.28
2022-11-16T09:02:31.822Z,71.31
2022-11-16T09:07:31.057Z,69.55
2022-11-16T09:12:29.912Z,70.58
2022-11-16T09:17:28.837Z,69.20
2022-11-16T09:22:27.585Z,66.61
2022-11-16T09:27:27.224Z,65.42
2022-11-16T09:32:26.007Z,66.30
2022-11-16T09:37:24.857Z,67.94
2022-11-16T09:43:12.107Z,63.96
2022-11-16T09:48:14.731Z,62.19
2022-11-16T09:53:49.189Z,65.21
2022-11-16T09:58:54.074Z,67.93
2022-11-16T10:04:02.916Z,69.35
2022-11-16T10:09:02.105Z,68.35
2022-11-16T10:14:12.949Z,68.75
2022-11-16T10:19:42.848Z,68.98
2022-11-16T10:24:58.366Z,68.77
2022-11-16T10:30:14.810Z,67.32
2022-11-16T10:35:22.983Z,66.58
2022-11-16T10:40:23.709Z,66.81
2022-11-16T10:45:33.359Z,66.69
2022-11-16T10:50:38.093Z,72.21
2022-11-16T10:55:36.931Z,61.02
2022-11-16T11:00:51.825Z,60.74
2022-11-16T11:05:53.456Z,58.72
2022-11-16T11:11:24.128Z,57.68
2022-11-16T11:16:22.978Z,58.26
2022-11-16T11:21:25.921Z,61.31
2022-11-16T11:26:35.876Z,63.28
2022-11-16T11:31:44.221Z,64.78
2022-11-16T11:36:52.411Z,65.02
2022-11-16T11:42:21.526Z,64.80
2022-11-16T11:48:02.954Z,65.69
2022-11-16T11:53:18.126Z,65.29
2022-11-16T11:58:19.780Z,65.78
2022-11-16T12:03:43.250Z,65.93
2022-11-16T12:09:16.359Z,66.06
2022-11-16T12:14:18.243Z,66.37
2022-11-16T12:19:19.933Z,66.08
2022-11-16T12:24:34.053Z,66.87
2022-11-16T12:29:54.476Z,66.27
2022-11-16T12:34:53.535Z,66.24
2022-11-16T12:40:18.293Z,66.21
2022-11-16T12:45:32.740Z,65.57
2022-11-16T12:50:59.622Z,65.82
2022-11-16T12:56:37.756Z,66.06
2022-11-16T13:02:00.177Z,66.63
2022-11-16T13:07:18.803Z,67.45
2022-11-16T13:12:23.430Z,67.42
2022-11-16T13:17:27.231Z,68.66
2022-11-16T13:22:28.316Z,69.14
2022-11-16T13:27:44.398Z,70.80
2022-11-16T13:33:11.278Z,71.41
2022-11-16T13:38:13.524Z,70.89
2022-11-16T13:43:12.834Z,72.65
2022-11-16T13:48:34.471Z,72.72
2022-11-16T13:54:37.779Z,73.52
2022-11-16T13:58:58.549Z,73.70
2022-11-16T14:04:39.728Z,73.82
2022-11-16T14:09:43.610Z,73.85
2022-11-16T14:15:14.312Z,74.29
2022-11-16T14:20:17.110Z,75.65
2022-11-16T14:25:48.796Z,75.94
2022-11-16T14:30:53.081Z,75.31
2022-11-16T14:35:53.827Z,76.44
2022-11-16T14:40:59.136Z,76.53
2022-11-16T14:46:03.496Z,79.46
2022-11-16T14:51:14.808Z,78.55
2022-11-16T14:56:16.400Z,79.43
2022-11-16T15:01:17.857Z,79.42
2022-11-16T15:06:16.880Z,80.60
2022-11-16T15:11:54.673Z,80.96
2022-11-16T15:16:56.205Z,81.79
2022-11-16T15:22:01.502Z,82.00
2022-11-16T15:27:28.971Z,82.77
2022-11-16T15:32:27.977Z,82.68
2022-11-16T15:37:28.918Z,82.91
2022-11-16T15:42:28.770Z,82.01
2022-11-16T15:47:27.844Z,82.88
2022-11-16T15:52:51.002Z,83.53
2022-11-16T15:58:04.126Z,83.94
2022-11-16T16:03:24.996Z,83.85
2022-11-16T16:08:30.582Z,83.73
2022-11-16T16:13:33.203Z,83.28
2022-11-16T16:18:41.430Z,84.01
2022-11-16T16:23:48.595Z,83.36
2022-11-16T16:28:47.637Z,83.92
2022-11-16T16:33:46.989Z,83.55
2022-11-16T16:38:45.840Z,83.74
2022-11-16T16:43:44.599Z,84.11
2022-11-16T16:48:44.805Z,83.58
2022-11-16T16:53:43.694Z,85.00
2022-11-16T16:58:42.714Z,84.77
2022-11-16T17:03:41.762Z,84.68
2022-11-16T17:08:40.742Z,84.45
2022-11-16T17:13:39.516Z,84.08
2022-11-16T17:18:38.513Z,84.34
2022-11-16T17:23:37.617Z,83.63
2022-11-16T17:28:37.021Z,85.01
2022-11-16T17:33:37.521Z,83.55
2022-11-16T17:38:36.896Z,83.81
2022-11-16T17:43:36.234Z,83.53
2022-11-16T17:48:36.546Z,83.94
2022-11-16T17:53:36.644Z,84.41
2022-11-16T17:58:35.605Z,83.95
2022-11-16T18:03:38.943Z,84.53
2022-11-16T18:08:37.871Z,84.63
2022-11-16T18:13:37.468Z,83.58
2022-11-16T18:18:37.843Z,83.97
2022-11-16T18:23:37.816Z,84.45
2022-11-16T18:28:37.259Z,83.91
2022-11-16T18:33:37.573Z,84.31
2022-11-16T18:38:37.579Z,83.61
2022-11-16T18:43:36.702Z,83.96
2022-11-16T18:48:35.823Z,84.98
2022-11-16T18:53:34.816Z,83.65
2022-11-16T18:58:51.336Z,82.83
2022-11-16T19:03:53.076Z,81.67
2022-11-16T19:08:59.213Z,82.48
2022-11-16T19:14:07.556Z,82.52
2022-11-16T19:19:06.560Z,82.37
2022-11-16T19:24:06.773Z,80.32
2022-11-16T19:29:05.660Z,80.93
2022-11-16T19:34:11.618Z,81.02
2022-11-16T19:39:10.517Z,80.27
2022-11-16T19:44:09.252Z,80.13
2022-11-16T19:49:10.208Z,80.28
2022-11-16T19:54:10.856Z,81.18
2022-11-16T19:59:09.903Z,79.14
2022-11-16T20:04:09.334Z,80.98
2022-11-16T20:09:11.957Z,80.82
2022-11-16T20:14:12.081Z,80.42
2022-11-16T20:19:11.159Z,80.85
2022-11-16T20:24:13.611Z,81.81
2022-11-16T20:29:14.479Z,80.28
2022-11-16T20:34:15.683Z,81.00
2022-11-16T20:39:16.213Z,81.03
2022-11-16T20:44:22.355Z,81.29
2022-11-16T20:49:21.454Z,80.67
2022-11-16T20:54:20.354Z,82.02
2022-11-16T20:59:19.436Z,81.34
2022-11-16T21:04:18.196Z,81.22
2022-11-16T21:09:22.633Z,80.94
2022-11-16T21:14:22.976Z,87.61
2022-11-16T21:19:21.790Z,80.44
2022-11-16T21:24:21.954Z,64.80
2022-11-16T21:29:25.872Z,73.23
2022-11-16T21:34:27.811Z,75.40
2022-11-16T21:39:27.344Z,77.56
2022-11-16T21:44:26.115Z,79.17
2022-11-16T21:49:25.042Z,81.51
2022-11-16T21:54:43.763Z,81.25
2022-11-16T21:59:43.169Z,80.10
2022-11-16T22:05:00.573Z,81.90
2022-11-16T22:10:08.595Z,81.93
2022-11-16T22:15:07.955Z,81.90
2022-11-16T22:20:07.302Z,82.35
2022-11-16T22:25:06.693Z,80.82
2022-11-16T22:30:06.960Z,81.62
2022-11-16T22:35:06.059Z,81.90
2022-11-16T22:40:05.685Z,81.47
2022-11-16T22:45:05.239Z,81.92
2022-11-16T22:50:04.322Z,80.95
2022-11-16T22:55:03.268Z,81.16
2022-11-16T23:00:02.183Z,82.09
2022-11-16T23:05:00.937Z,82.06
2022-11-16T23:09:59.886Z,82.45
2022-11-16T23:15:17.464Z,80.73
2022-11-16T23:20:34.874Z,81.84
2022-11-16T23:25:52.802Z,81.46
2022-11-16T23:30:51.715Z,81.43
2022-11-16T23:35:50.474Z,80.79
2022-11-16T23:40:49.310Z,80.51
2022-11-16T23:45:49.417Z,80.81
2022-11-16T23:50:48.312Z,79.86
2022-11-16T23:55:47.642Z,79.49
